Time;durP1;ratioP1;P1;durP2;ratioP2;P2;SDS_P1;SDS_P2;PMS_P1;PMS_P2;Temp;Humidity;BMP_temperature;BMP_pressure;BME280_temperature;BME280_humidity;BME280_pressure;Samples;Min_cycle;Max_cycle;Signal;HPM_P1;HPM_P2
2021/06/15 00:01:58;;;;;;;24.40;13.07;;;;;;;;;;4995406;28;20202;-66
2021/06/15 00:04:23;;;;;;;27.10;14.20;;;;;;;;;;5003058;28;20772;-66
2021/06/15 00:06:49;;;;;;;23.88;14.02;;;;;;;;;;4997707;28;20191;-66
2021/06/15 00:09:14;;;;;;;23.52;14.73;;;;;;;;;;4992338;28;20207;-66
2021/06/15 00:11:40;;;;;;;20.60;13.52;;;;;;;;;;5000822;28;20183;-66
2021/06/15 00:14:05;;;;;;;19.25;12.85;;;;;;;;;;4991892;28;20186;-66
2021/06/15 00:16:31;;;;;;;21.95;13.32;;;;;;;;;;5000762;28;20536;-66
2021/06/15 00:18:57;;;;;;;20.50;13.68;;;;;;;;;;4995091;28;20219;-66
2021/06/15 00:21:23;;;;;;;23.98;13.45;;;;;;;;;;5000036;28;20187;-66
2021/06/15 00:23:48;;;;;;;22.10;13.95;;;;;;;;;;4991633;28;20547;-66
2021/06/15 00:26:13;;;;;;;26.70;13.35;;;;;;;;;;5002417;28;20185;-66
2021/06/15 00:28:39;;;;;;;25.92;14.55;;;;;;;;;;4991427;28;20191;-66
2021/06/15 00:31:04;;;;;;;22.35;13.43;;;;;;;;;;5003166;28;20183;-66
2021/06/15 00:33:30;;;;;;;23.83;13.55;;;;;;;;;;4991453;28;20265;-66
2021/06/15 00:35:55;;;;;;;23.08;13.45;;;;;;;;;;5003532;28;20198;-66
2021/06/15 00:38:20;;;;;;;21.65;13.82;;;;;;;;;;4997817;28;20224;-65
2021/06/15 00:40:46;;;;;;;20.58;13.52;;;;;;;;;;4992743;28;20183;-66
2021/06/15 00:43:11;;;;;;;21.20;13.90;;;;;;;;;;4997878;28;20527;-66
2021/06/15 00:45:37;;;;;;;19.30;13.18;;;;;;;;;;4991022;28;20750;-66
2021/06/15 00:48:03;;;;;;;22.83;13.35;;;;;;;;;;4995957;28;20188;-66
2021/06/15 00:50:29;;;;;;;21.65;12.45;;;;;;;;;;4993404;28;20188;-66
2021/06/15 00:52:56;;;;;;;21.98;13.32;;;;;;;;;;5004340;28;20190;-66
2021/06/15 00:55:23;;;;;;;23.77;13.77;;;;;;;;;;4993979;28;20232;-66
2021/06/15 00:57:48;;;;;;;19.50;12.35;;;;;;;;;;5000161;28;20714;-66
2021/06/15 01:00:14;;;;;;;24.75;12.57;;;;;;;;;;4991769;28;20191;-66
2021/06/15 01:02:40;;;;;;;18.20;12.02;;;;;;;;;;5000207;28;20643;-66
2021/06/15 01:05:08;;;;;;;22.42;12.18;;;;;;;;;;4992047;28;20266;-66
2021/06/15 01:07:42;;;;;;;20.33;11.75;;;;;;;;;;5000153;28;20184;-66
2021/06/15 01:10:43;;;;;;;22.00;12.10;;;;;;;;;;4993935;28;20815;-66
2021/06/15 01:13:21;;;;;;;20.08;12.40;;;;;;;;;;4996866;28;20190;-66
2021/06/15 01:16:04;;;;;;;21.45;11.45;;;;;;;;;;4991271;28;20223;-66
2021/06/15 01:18:31;;;;;;;19.52;11.55;;;;;;;;;;4993732;28;20186;-66
2021/06/15 01:21:02;;;;;;;24.55;12.27;;;;;;;;;;4991491;28;20521;-66
2021/06/15 01:23:54;;;;;;;24.15;12.35;;;;;;;;;;5004379;28;20537;-66
2021/06/15 01:26:41;;;;;;;22.42;12.95;;;;;;;;;;4991957;28;20537;-66
2021/06/15 01:29:12;;;;;;;18.08;12.60;;;;;;;;;;4997425;28;20595;-66
2021/06/15 01:31:44;;;;;;;22.33;12.30;;;;;;;;;;4993462;28;20246;-66
2021/06/15 01:34:13;;;;;;;19.80;12.40;;;;;;;;;;4995866;28;20182;-66
2021/06/15 01:36:42;;;;;;;21.27;12.48;;;;;;;;;;4993945;28;20210;-66
2021/06/15 01:39:20;;;;;;;23.15;13.32;;;;;;;;;;4999323;28;20217;-66
2021/06/15 01:42:00;;;;;;;28.50;11.73;;;;;;;;;;4991413;28;20187;-66
2021/06/15 01:44:28;;;;;;;19.08;12.05;;;;;;;;;;5001523;28;20193;-66
2021/06/15 01:47:03;;;;;;;20.30;12.52;;;;;;;;;;4992587;28;20223;-66
2021/06/15 01:49:31;;;;;;;20.00;12.35;;;;;;;;;;5001680;28;20336;-66
2021/06/15 01:51:58;;;;;;;18.67;12.25;;;;;;;;;;4996746;28;20195;-66
2021/06/15 01:54:25;;;;;;;18.70;13.23;;;;;;;;;;4992509;28;20571;-65
2021/06/15 01:56:52;;;;;;;19.48;12.35;;;;;;;;;;5001227;28;20182;-66
2021/06/15 01:59:20;;;;;;;18.60;12.73;;;;;;;;;;4992057;28;20189;-65
2021/06/15 02:01:48;;;;;;;19.70;13.23;;;;;;;;;;5003668;28;20238;-65
2021/06/15 02:04:14;;;;;;;23.13;12.43;;;;;;;;;;4990823;28;20829;-65
2021/06/15 02:06:43;;;;;;;21.30;13.40;;;;;;;;;;5003349;28;20182;-65
2021/06/15 02:09:10;;;;;;;19.40;11.75;;;;;;;;;;4987460;28;20194;-66
2021/06/15 02:11:36;;;;;;;17.77;11.88;;;;;;;;;;4999987;28;20520;-66
2021/06/15 02:14:04;;;;;;;16.30;11.88;;;;;;;;;;4992137;28;20217;-66
2021/06/15 02:16:30;;;;;;;19.38;12.40;;;;;;;;;;4999199;28;20198;-64
2021/06/15 02:18:57;;;;;;;20.63;11.45;;;;;;;;;;4991976;28;20251;-65
2021/06/15 02:21:24;;;;;;;17.55;11.70;;;;;;;;;;5000326;28;20563;-66
2021/06/15 02:23:56;;;;;;;14.45;11.25;;;;;;;;;;4989315;28;20194;-66
2021/06/15 02:26:23;;;;;;;19.85;11.48;;;;;;;;;;5000649;28;20180;-66
2021/06/15 02:28:49;;;;;;;19.10;10.07;;;;;;;;;;4996512;28;20799;-65
2021/06/15 02:31:17;;;;;;;16.10;9.60;;;;;;;;;;4992180;28;20182;-65
2021/06/15 02:33:47;;;;;;;15.90;9.20;;;;;;;;;;4995288;28;20214;-66
2021/06/15 02:36:18;;;;;;;15.23;8.38;;;;;;;;;;4987564;28;20316;-65
2021/06/15 02:38:51;;;;;;;11.65;6.88;;;;;;;;;;4996896;28;20618;-65
2021/06/15 02:41:17;;;;;;;12.30;5.30;;;;;;;;;;4988615;28;20206;-65
2021/06/15 02:43:44;;;;;;;12.52;5.60;;;;;;;;;;4997475;28;20198;-66
2021/06/15 02:46:13;;;;;;;11.15;4.97;;;;;;;;;;4986892;28;20453;-66
2021/06/15 02:48:41;;;;;;;8.63;4.25;;;;;;;;;;5002382;28;20187;-65
2021/06/15 02:51:07;;;;;;;7.82;3.88;;;;;;;;;;4993018;28;20285;-65
2021/06/15 02:53:41;;;;;;;11.00;3.75;;;;;;;;;;4998744;28;20686;-65
2021/06/15 02:56:10;;;;;;;8.80;3.50;;;;;;;;;;4992236;28;20210;-65
2021/06/15 02:58:36;;;;;;;12.93;3.90;;;;;;;;;;4999167;28;20190;-65
2021/06/15 03:01:02;;;;;;;8.00;3.38;;;;;;;;;;4991431;28;20213;-65
2021/06/15 03:03:27;;;;;;;11.88;3.40;;;;;;;;;;4997420;28;20190;-65
2021/06/15 03:05:52;;;;;;;9.60;3.78;;;;;;;;;;4991891;28;20414;-65
2021/06/15 03:08:18;;;;;;;9.98;3.92;;;;;;;;;;4994664;28;20186;-65
2021/06/15 03:10:44;;;;;;;12.50;4.80;;;;;;;;;;5000174;28;20263;-65
2021/06/15 03:13:20;;;;;;;12.38;4.72;;;;;;;;;;4987903;28;20194;-66
2021/06/15 03:15:50;;;;;;;11.98;6.05;;;;;;;;;;4998154;28;20286;-65
2021/06/15 03:18:30;;;;;;;10.55;5.32;;;;;;;;;;4991395;28;20538;-65
2021/06/15 03:20:58;;;;;;;11.88;6.13;;;;;;;;;;5002435;28;20209;-66
2021/06/15 03:24:03;;;;;;;17.30;6.70;;;;;;;;;;4989526;28;20198;-65
2021/06/15 03:26:36;;;;;;;16.13;6.93;;;;;;;;;;4996279;28;21128;-65
2021/06/15 03:29:03;;;;;;;13.43;7.15;;;;;;;;;;4988297;28;20244;-66
2021/06/15 03:31:33;;;;;;;14.40;6.78;;;;;;;;;;4998485;28;20205;-66
2021/06/15 03:34:01;;;;;;;17.40;7.40;;;;;;;;;;4991601;28;20186;-66
2021/06/15 03:36:27;;;;;;;15.10;6.63;;;;;;;;;;4998367;28;20302;-67
2021/06/15 03:38:57;;;;;;;13.65;7.30;;;;;;;;;;4988314;28;20277;-66
2021/06/15 03:41:23;;;;;;;15.75;7.78;;;;;;;;;;4994656;28;20222;-66
2021/06/15 03:43:54;;;;;;;15.55;7.63;;;;;;;;;;4990504;28;20187;-66
2021/06/15 03:46:22;;;;;;;13.98;7.00;;;;;;;;;;4996324;28;20494;-65
2021/06/15 03:48:50;;;;;;;9.80;6.40;;;;;;;;;;4986767;28;20299;-65
2021/06/15 03:51:23;;;;;;;10.52;6.38;;;;;;;;;;4997454;28;20183;-65
2021/06/15 03:53:50;;;;;;;12.68;6.20;;;;;;;;;;4989718;28;20248;-64
2021/06/15 03:56:17;;;;;;;11.68;5.50;;;;;;;;;;4997900;28;20273;-65
2021/06/15 03:58:44;;;;;;;12.98;4.93;;;;;;;;;;4984610;28;20217;-65
2021/06/15 04:01:13;;;;;;;16.17;5.60;;;;;;;;;;4999656;28;20220;-65
2021/06/15 04:03:40;;;;;;;12.27;4.70;;;;;;;;;;5000560;28;20187;-65
2021/06/15 04:06:07;;;;;;;13.27;4.70;;;;;;;;;;4989450;28;20646;-65
2021/06/15 04:08:34;;;;;;;13.35;4.53;;;;;;;;;;4996232;28;20195;-65
2021/06/15 04:11:01;;;;;;;13.10;4.03;;;;;;;;;;4988993;28;20670;-65
2021/06/15 04:13:28;;;;;;;9.43;4.07;;;;;;;;;;5000645;28;20579;-65
2021/06/15 04:15:55;;;;;;;13.95;4.18;;;;;;;;;;4990191;28;20292;-65
2021/06/15 04:18:24;;;;;;;15.23;3.95;;;;;;;;;;4994291;28;20199;-66
2021/06/15 04:20:52;;;;;;;15.80;4.20;;;;;;;;;;4985805;28;20632;-66
2021/06/15 04:23:28;;;;;;;14.40;4.45;;;;;;;;;;4997352;28;20217;-65
2021/06/15 04:25:54;;;;;;;10.50;3.92;;;;;;;;;;4991485;28;20195;-66
2021/06/15 04:28:20;;;;;;;9.75;3.78;;;;;;;;;;4996868;28;20225;-66
2021/06/15 04:30:46;;;;;;;12.88;3.65;;;;;;;;;;4993193;28;20715;-66
2021/06/15 04:33:14;;;;;;;14.30;4.10;;;;;;;;;;4998266;28;20197;-66
2021/06/15 04:35:46;;;;;;;11.90;4.03;;;;;;;;;;4991568;28;20377;-66
2021/06/15 04:38:22;;;;;;;14.55;3.83;;;;;;;;;;4999753;28;20812;-66
2021/06/15 04:40:50;;;;;;;11.98;3.47;;;;;;;;;;4994063;28;20175;-67
2021/06/15 04:43:26;;;;;;;9.82;4.00;;;;;;;;;;5001502;28;20625;-66
2021/06/15 04:45:56;;;;;;;14.73;3.72;;;;;;;;;;5000966;28;20559;-66
2021/06/15 04:48:33;;;;;;;20.23;3.97;;;;;;;;;;4992936;28;20193;-67
2021/06/15 04:51:00;;;;;;;12.75;3.70;;;;;;;;;;4998080;28;20179;-67
2021/06/15 04:53:29;;;;;;;17.02;3.80;;;;;;;;;;4994751;28;20211;-67
2021/06/15 04:55:56;;;;;;;13.10;3.80;;;;;;;;;;4998830;28;20620;-66
2021/06/15 04:58:22;;;;;;;17.98;4.18;;;;;;;;;;4992065;28;20252;-67
2021/06/15 05:00:50;;;;;;;17.02;3.28;;;;;;;;;;5001041;28;20203;-67
2021/06/15 05:03:19;;;;;;;13.82;3.38;;;;;;;;;;4991171;28;20298;-67
2021/06/15 05:05:47;;;;;;;11.20;3.30;;;;;;;;;;5000282;28;20210;-67
2021/06/15 05:08:14;;;;;;;12.88;3.95;;;;;;;;;;4988439;28;20722;-66
2021/06/15 05:10:42;;;;;;;12.23;3.42;;;;;;;;;;5004898;28;20270;-66
2021/06/15 05:13:11;;;;;;;14.00;3.20;;;;;;;;;;4994035;28;20190;-67
2021/06/15 05:15:42;;;;;;;14.65;3.20;;;;;;;;;;5001603;28;20297;-67
2021/06/15 05:18:08;;;;;;;14.65;3.25;;;;;;;;;;4991747;28;20261;-67
2021/06/15 05:20:34;;;;;;;12.50;3.00;;;;;;;;;;4999507;28;20584;-66
2021/06/15 05:23:22;;;;;;;9.38;2.70;;;;;;;;;;4306937;28;10000738;-66
2021/06/15 05:25:51;;;;;;;13.45;3.38;;;;;;;;;;5000559;28;20209;-66
2021/06/15 05:28:17;;;;;;;15.98;2.70;;;;;;;;;;4993152;28;20265;-66
2021/06/15 05:30:42;;;;;;;9.18;2.22;;;;;;;;;;4997815;28;20635;-67
2021/06/15 05:33:08;;;;;;;12.15;2.03;;;;;;;;;;5001937;28;20197;-67
2021/06/15 05:35:33;;;;;;;15.07;2.75;;;;;;;;;;4992342;28;20213;-66
2021/06/15 05:37:58;;;;;;;13.77;2.20;;;;;;;;;;5004038;28;20428;-66
2021/06/15 05:40:24;;;;;;;8.77;2.05;;;;;;;;;;4992658;28;20201;-66
2021/06/15 05:42:49;;;;;;;11.38;2.40;;;;;;;;;;4996558;28;20236;-67
2021/06/15 05:45:15;;;;;;;8.88;1.88;;;;;;;;;;4992438;28;20295;-70
2021/06/15 05:47:43;;;;;;;14.80;2.28;;;;;;;;;;4998577;28;20745;-66
2021/06/15 05:50:09;;;;;;;14.05;2.63;;;;;;;;;;4990414;28;20187;-66
2021/06/15 05:52:34;;;;;;;11.52;2.28;;;;;;;;;;4996739;28;20285;-66
2021/06/15 05:55:00;;;;;;;11.25;2.42;;;;;;;;;;4990755;28;20305;-66
2021/06/15 05:57:27;;;;;;;12.77;2.20;;;;;;;;;;4998924;28;20198;-66
2021/06/15 05:59:53;;;;;;;11.60;2.10;;;;;;;;;;4646537;28;10000363;-66
2021/06/15 06:02:18;;;;;;;15.60;2.20;;;;;;;;;;5002284;28;20704;-66
2021/06/15 06:10:05;;;;;;;11.90;2.38;;;;;;;;;;4994697;28;20189;-66
2021/06/15 06:12:31;;;;;;;13.45;2.30;;;;;;;;;;4998348;28;20203;-67
2021/06/15 06:14:56;;;;;;;8.07;1.80;;;;;;;;;;5002729;28;20203;-67
2021/06/15 06:17:22;;;;;;;9.90;2.42;;;;;;;;;;4993542;28;20183;-67
2021/06/15 06:19:48;;;;;;;17.73;2.95;;;;;;;;;;4999673;28;20590;-67
2021/06/15 06:22:14;;;;;;;17.40;2.50;;;;;;;;;;4993041;28;20320;-66
2021/06/15 06:24:40;;;;;;;13.07;2.20;;;;;;;;;;4998302;28;20261;-66
2021/06/15 06:27:06;;;;;;;9.00;2.22;;;;;;;;;;4990546;28;20194;-66
2021/06/15 06:29:31;;;;;;;15.32;2.33;;;;;;;;;;5001051;28;20199;-66
2021/06/15 06:31:57;;;;;;;11.88;2.10;;;;;;;;;;4989364;28;20233;-66
2021/06/15 06:34:22;;;;;;;13.30;2.28;;;;;;;;;;5000775;28;20193;-67
2021/06/15 06:36:47;;;;;;;12.13;2.30;;;;;;;;;;4989989;28;20211;-65
2021/06/15 06:39:13;;;;;;;10.82;2.10;;;;;;;;;;5000865;28;20541;-66
2021/06/15 06:41:38;;;;;;;13.02;1.98;;;;;;;;;;4996927;28;20240;-66
2021/06/15 06:44:04;;;;;;;12.30;2.30;;;;;;;;;;4991522;28;20179;-66
2021/06/15 06:46:30;;;;;;;11.10;2.47;;;;;;;;;;4997504;28;20301;-66
2021/06/15 06:48:56;;;;;;;13.90;2.13;;;;;;;;;;4990517;28;20179;-66
2021/06/15 06:51:21;;;;;;;15.82;2.15;;;;;;;;;;4999696;28;20183;-66
2021/06/15 06:53:47;;;;;;;14.10;2.20;;;;;;;;;;4992494;28;20817;-66
2021/06/15 06:56:12;;;;;;;18.55;2.75;;;;;;;;;;4996536;28;20203;-66
2021/06/15 06:58:38;;;;;;;13.07;2.33;;;;;;;;;;4988660;28;20658;-66
2021/06/15 07:01:04;;;;;;;10.90;2.47;;;;;;;;;;4999323;28;20209;-67
2021/06/15 07:03:29;;;;;;;11.70;2.70;;;;;;;;;;4989524;28;20187;-67
2021/06/15 07:05:55;;;;;;;13.35;2.85;;;;;;;;;;4998705;28;20452;-66
2021/06/15 07:08:20;;;;;;;9.15;2.10;;;;;;;;;;4987613;28;20190;-66
2021/06/15 07:10:46;;;;;;;11.98;2.42;;;;;;;;;;4997812;28;20276;-66
2021/06/15 07:13:12;;;;;;;16.00;3.22;;;;;;;;;;4996611;28;20650;-67
2021/06/15 07:15:37;;;;;;;14.52;2.15;;;;;;;;;;4993981;28;20213;-67
2021/06/15 07:18:03;;;;;;;13.63;2.63;;;;;;;;;;4997197;28;20182;-66
2021/06/15 07:20:28;;;;;;;16.05;2.38;;;;;;;;;;4992043;28;20650;-66
2021/06/15 07:22:53;;;;;;;10.02;2.25;;;;;;;;;;4996012;28;20542;-66
2021/06/15 07:25:19;;;;;;;11.15;1.80;;;;;;;;;;4988797;28;22409;-67
2021/06/15 07:27:45;;;;;;;13.52;2.10;;;;;;;;;;4996300;28;20654;-67
2021/06/15 07:30:11;;;;;;;12.07;2.60;;;;;;;;;;4991335;28;20199;-66
2021/06/15 07:32:36;;;;;;;11.82;2.22;;;;;;;;;;5000117;28;20670;-66
2021/06/15 07:35:02;;;;;;;10.68;2.13;;;;;;;;;;4987027;28;20210;-66
2021/06/15 07:37:28;;;;;;;10.70;2.53;;;;;;;;;;4997989;28;20186;-65
2021/06/15 07:39:53;;;;;;;10.45;1.88;;;;;;;;;;4996407;28;20182;-66
2021/06/15 07:42:18;;;;;;;10.77;2.20;;;;;;;;;;4995410;28;20195;-66
2021/06/15 07:44:44;;;;;;;13.52;2.15;;;;;;;;;;4999762;28;20207;-66
2021/06/15 07:47:09;;;;;;;10.27;2.05;;;;;;;;;;4987490;28;20245;-66
2021/06/15 07:49:35;;;;;;;11.05;2.00;;;;;;;;;;5002715;28;20636;-66
2021/06/15 07:52:00;;;;;;;15.50;2.17;;;;;;;;;;4990443;28;20194;-67
2021/06/15 07:54:25;;;;;;;13.23;2.22;;;;;;;;;;4998011;28;20431;-67
2021/06/15 07:56:51;;;;;;;10.05;2.47;;;;;;;;;;4987624;28;20333;-66
2021/06/15 07:59:17;;;;;;;9.38;2.20;;;;;;;;;;5004398;28;20752;-66
2021/06/15 08:01:42;;;;;;;9.52;2.58;;;;;;;;;;4997550;28;20202;-66
2021/06/15 08:04:12;;;;;;;12.00;2.75;;;;;;;;;;5002928;28;20241;-67
2021/06/15 08:06:37;;;;;;;11.40;2.03;;;;;;;;;;4992846;28;20187;-66
2021/06/15 08:09:02;;;;;;;12.15;2.42;;;;;;;;;;5005743;28;20198;-66
2021/06/15 08:11:28;;;;;;;8.57;2.08;;;;;;;;;;5003962;28;20182;-66
2021/06/15 08:13:53;;;;;;;16.40;2.35;;;;;;;;;;4996147;28;20265;-66
2021/06/15 08:16:19;;;;;;;12.85;2.40;;;;;;;;;;5002417;28;20558;-66
2021/06/15 08:18:45;;;;;;;14.77;2.17;;;;;;;;;;4995717;28;21217;-66
2021/06/15 08:21:10;;;;;;;8.85;1.80;;;;;;;;;;4999081;28;20238;-65
2021/06/15 08:23:36;;;;;;;13.38;2.00;;;;;;;;;;4992964;28;20182;-65
2021/06/15 08:26:01;;;;;;;8.00;1.98;;;;;;;;;;4999695;28;20180;-66
2021/06/15 08:28:26;;;;;;;6.88;1.73;;;;;;;;;;4991915;28;20206;-66
2021/06/15 08:30:52;;;;;;;8.52;1.98;;;;;;;;;;5004509;28;20186;-66
2021/06/15 08:33:18;;;;;;;14.68;2.38;;;;;;;;;;4992574;28;20201;-65
2021/06/15 08:35:43;;;;;;;8.48;2.10;;;;;;;;;;5003823;28;20221;-66
2021/06/15 08:38:08;;;;;;;8.75;1.90;;;;;;;;;;4992212;28;20188;-66
2021/06/15 08:40:34;;;;;;;6.90;1.73;;;;;;;;;;5004259;28;20287;-67
2021/06/15 08:43:00;;;;;;;9.40;2.50;;;;;;;;;;4997601;28;20197;-66
2021/06/15 08:45:25;;;;;;;10.15;1.85;;;;;;;;;;4992777;28;20190;-66
2021/06/15 08:47:53;;;;;;;9.70;1.73;;;;;;;;;;4999384;28;20238;-68
2021/06/15 08:50:21;;;;;;;11.57;2.55;;;;;;;;;;4995799;28;20201;-66
2021/06/15 08:52:47;;;;;;;9.77;1.98;;;;;;;;;;4997848;28;20190;-68
2021/06/15 08:55:14;;;;;;;8.57;2.33;;;;;;;;;;4991757;28;20622;-67
2021/06/15 08:57:41;;;;;;;11.35;2.38;;;;;;;;;;4994554;28;20254;-67
2021/06/15 09:00:09;;;;;;;9.82;2.25;;;;;;;;;;4991618;28;20730;-67
2021/06/15 09:02:45;;;;;;;13.27;2.50;;;;;;;;;;5003178;28;20205;-67
2021/06/15 09:05:15;;;;;;;10.38;2.38;;;;;;;;;;4992246;28;20660;-67
2021/06/15 09:08:04;;;;;;;11.35;2.40;;;;;;;;;;5000708;28;20617;-67
2021/06/15 09:10:36;;;;;;;10.00;2.10;;;;;;;;;;4992000;28;20194;-68
2021/06/15 09:13:02;;;;;;;7.38;2.38;;;;;;;;;;4996781;28;20726;-67
2021/06/15 09:15:28;;;;;;;16.50;2.55;;;;;;;;;;4994366;28;20209;-67
2021/06/15 09:17:53;;;;;;;8.27;3.00;;;;;;;;;;5000528;28;20191;-66
2021/06/15 09:20:26;;;;;;;11.50;2.30;;;;;;;;;;4993199;28;20673;-66
2021/06/15 09:23:09;;;;;;;10.73;1.70;;;;;;;;;;4998211;28;20270;-66
2021/06/15 09:25:35;;;;;;;8.02;2.05;;;;;;;;;;4993780;28;22063;-66
2021/06/15 09:28:16;;;;;;;10.55;2.38;;;;;;;;;;5005661;28;20525;-69
2021/06/15 09:31:11;;;;;;;9.80;2.08;;;;;;;;;;4995164;28;20197;-66
2021/06/15 09:33:42;;;;;;;11.20;2.22;;;;;;;;;;4998571;28;20186;-66
2021/06/15 09:36:27;;;;;;;9.13;2.05;;;;;;;;;;4991073;28;20602;-66
2021/06/15 09:38:54;;;;;;;10.05;1.98;;;;;;;;;;4996302;28;20187;-66
2021/06/15 09:41:32;;;;;;;9.18;1.92;;;;;;;;;;4991422;28;20741;-66
2021/06/15 09:44:16;;;;;;;6.03;1.80;;;;;;;;;;4998870;28;20229;-67
2021/06/15 09:46:45;;;;;;;9.60;2.20;;;;;;;;;;4994136;28;20632;-67
2021/06/15 09:49:12;;;;;;;7.53;2.25;;;;;;;;;;4997833;28;20199;-66
2021/06/15 09:51:41;;;;;;;7.82;2.50;;;;;;;;;;4995019;28;20279;-66
2021/06/15 09:54:06;;;;;;;8.75;1.95;;;;;;;;;;5002055;28;20209;-66
2021/06/15 09:56:32;;;;;;;14.23;3.15;;;;;;;;;;5002460;28;20285;-67
2021/06/15 09:59:00;;;;;;;10.10;2.40;;;;;;;;;;4992490;28;20542;-66
2021/06/15 10:01:34;;;;;;;10.07;2.25;;;;;;;;;;5000828;28;20684;-66
2021/06/15 10:04:07;;;;;;;8.98;2.20;;;;;;;;;;4991033;28;20203;-66
2021/06/15 10:06:38;;;;;;;9.75;2.08;;;;;;;;;;5003617;28;20188;-66
2021/06/15 10:09:04;;;;;;;5.95;1.60;;;;;;;;;;4989811;28;20681;-66
2021/06/15 10:11:31;;;;;;;7.47;1.50;;;;;;;;;;5002038;28;20585;-66
2021/06/15 10:13:57;;;;;;;10.70;1.73;;;;;;;;;;4991923;28;20194;-66
2021/06/15 10:16:23;;;;;;;10.02;2.25;;;;;;;;;;5001319;28;20206;-67
2021/06/15 10:18:48;;;;;;;7.88;1.83;;;;;;;;;;4989784;28;20301;-66
2021/06/15 10:21:14;;;;;;;6.93;2.03;;;;;;;;;;4997547;28;20191;-68
2021/06/15 10:23:39;;;;;;;12.27;1.90;;;;;;;;;;4989136;28;20191;-68
2021/06/15 10:26:06;;;;;;;7.03;1.63;;;;;;;;;;4998528;28;20194;-67
2021/06/15 10:28:32;;;;;;;6.72;1.70;;;;;;;;;;4988924;28;20728;-68
2021/06/15 10:31:02;;;;;;;10.15;2.20;;;;;;;;;;5000793;28;20320;-69
2021/06/15 10:33:27;;;;;;;5.85;1.60;;;;;;;;;;4997957;28;20330;-68
2021/06/15 10:35:55;;;;;;;8.73;1.83;;;;;;;;;;4995723;28;20293;-67
2021/06/15 10:38:29;;;;;;;11.07;1.60;;;;;;;;;;4997158;28;21028;-68
2021/06/15 10:40:57;;;;;;;9.95;2.08;;;;;;;;;;4991550;28;20197;-66
2021/06/15 10:43:28;;;;;;;11.77;1.98;;;;;;;;;;4998808;28;20194;-67
2021/06/15 10:46:00;;;;;;;8.00;1.58;;;;;;;;;;4992700;28;20659;-68
2021/06/15 10:48:29;;;;;;;9.85;2.10;;;;;;;;;;4996628;28;20218;-66
2021/06/15 10:50:57;;;;;;;8.75;1.90;;;;;;;;;;4991829;28;20292;-67
2021/06/15 10:53:41;;;;;;;7.38;2.08;;;;;;;;;;4995383;28;20226;-67
2021/06/15 10:56:09;;;;;;;8.10;1.95;;;;;;;;;;4993546;28;20653;-66
2021/06/15 10:58:38;;;;;;;7.88;1.80;;;;;;;;;;4998824;28;20185;-66
2021/06/15 11:01:27;;;;;;;6.50;1.63;;;;;;;;;;4991642;28;20215;-66
2021/06/15 11:03:54;;;;;;;9.85;2.33;;;;;;;;;;4995955;28;20732;-66
2021/06/15 11:06:20;;;;;;;8.90;1.77;;;;;;;;;;4989674;28;20658;-68
2021/06/15 11:08:46;;;;;;;9.93;2.30;;;;;;;;;;4996320;28;20190;-66
2021/06/15 11:11:19;;;;;;;8.20;2.13;;;;;;;;;;4988724;28;20656;-66
2021/06/15 11:13:56;;;;;;;10.98;2.03;;;;;;;;;;5001865;28;20281;-66
2021/06/15 11:16:33;;;;;;;7.07;2.08;;;;;;;;;;4992095;28;20256;-67
2021/06/15 11:19:11;;;;;;;11.70;2.00;;;;;;;;;;4999163;28;20345;-68
2021/06/15 11:22:00;;;;;;;9.98;2.38;;;;;;;;;;4994431;28;20194;-67
2021/06/15 11:24:34;;;;;;;6.93;2.05;;;;;;;;;;5000871;28;20209;-67
2021/06/15 11:27:02;;;;;;;9.90;2.13;;;;;;;;;;4991282;28;20274;-66
2021/06/15 11:29:36;;;;;;;7.55;1.88;;;;;;;;;;5000620;28;20227;-67
2021/06/15 11:32:14;;;;;;;8.57;2.20;;;;;;;;;;4991192;28;20186;-68
2021/06/15 11:34:41;;;;;;;8.57;1.98;;;;;;;;;;5003875;28;20740;-67
2021/06/15 11:37:33;;;;;;;8.35;2.42;;;;;;;;;;4992590;28;20221;-66
2021/06/15 11:40:10;;;;;;;8.38;2.45;;;;;;;;;;5002917;28;20240;-68
2021/06/15 11:42:36;;;;;;;7.93;1.98;;;;;;;;;;4993146;28;20269;-68
2021/06/15 11:45:10;;;;;;;7.68;1.70;;;;;;;;;;5002496;28;21248;-67
2021/06/15 11:47:41;;;;;;;10.23;2.45;;;;;;;;;;4991472;28;20735;-68
2021/06/15 11:50:31;;;;;;;8.15;2.08;;;;;;;;;;5003010;28;20176;-69
2021/06/15 11:53:09;;;;;;;8.60;1.58;;;;;;;;;;4993294;28;20194;-66
2021/06/15 11:55:56;;;;;;;11.50;2.17;;;;;;;;;;5001130;28;20226;-67
2021/06/15 11:58:28;;;;;;;8.95;1.98;;;;;;;;;;4996440;28;20221;-66
2021/06/15 12:01:06;;;;;;;6.80;1.88;;;;;;;;;;5004887;28;20252;-67
2021/06/15 12:03:42;;;;;;;10.88;2.13;;;;;;;;;;4993901;28;20183;-66
2021/06/15 12:06:09;;;;;;;7.72;2.13;;;;;;;;;;4998036;28;20198;-69
2021/06/15 12:08:40;;;;;;;7.65;2.08;;;;;;;;;;4994389;28;20187;-66
2021/06/15 12:11:11;;;;;;;5.50;1.60;;;;;;;;;;5001496;28;20182;-67
2021/06/15 12:13:38;;;;;;;8.38;2.25;;;;;;;;;;4991585;28;20558;-67
2021/06/15 12:16:04;;;;;;;10.70;1.90;;;;;;;;;;4999962;28;20207;-67
2021/06/15 12:18:34;;;;;;;10.32;2.50;;;;;;;;;;4996586;28;20187;-65
2021/06/15 12:21:03;;;;;;;9.10;1.77;;;;;;;;;;4988155;28;20199;-69
2021/06/15 12:23:36;;;;;;;6.53;1.92;;;;;;;;;;5001881;28;20197;-68
2021/06/15 12:26:18;;;;;;;11.63;2.35;;;;;;;;;;4994118;28;20187;-67
2021/06/15 12:28:47;;;;;;;13.25;2.63;;;;;;;;;;5002370;28;20736;-69
2021/06/15 12:31:14;;;;;;;7.70;2.13;;;;;;;;;;4990098;28;20201;-71
2021/06/15 12:33:41;;;;;;;11.32;2.10;;;;;;;;;;4307308;28;10000128;-70
2021/06/15 12:36:10;;;;;;;10.73;1.92;;;;;;;;;;4989740;28;20207;-67
2021/06/15 12:38:37;;;;;;;9.55;1.90;;;;;;;;;;5004035;28;20726;-66
2021/06/15 12:41:08;;;;;;;8.57;1.55;;;;;;;;;;4992639;28;20191;-69
2021/06/15 12:43:34;;;;;;;5.82;1.70;;;;;;;;;;4997559;28;20219;-68
2021/06/15 12:46:15;;;;;;;7.90;1.98;;;;;;;;;;4996421;28;20638;-66
2021/06/15 12:48:46;;;;;;;8.68;1.80;;;;;;;;;;4998982;28;20199;-69
2021/06/15 12:51:14;;;;;;;8.75;2.05;;;;;;;;;;4994772;28;20292;-70
2021/06/15 12:53:41;;;;;;;7.43;1.70;;;;;;;;;;5000961;28;20254;-68
2021/06/15 12:56:23;;;;;;;10.55;2.38;;;;;;;;;;4994703;28;20210;-66
2021/06/15 12:58:50;;;;;;;11.40;2.20;;;;;;;;;;4999257;28;20282;-67
2021/06/15 13:01:32;;;;;;;4.82;1.58;;;;;;;;;;4993084;28;20717;-69
2021/06/15 13:03:57;;;;;;;12.27;1.98;;;;;;;;;;5002014;28;20274;-69
2021/06/15 13:06:24;;;;;;;9.18;2.08;;;;;;;;;;4989916;28;20669;-65
2021/06/15 13:08:50;;;;;;;4.68;1.80;;;;;;;;;;5000097;28;20194;-66
2021/06/15 13:11:24;;;;;;;9.68;1.67;;;;;;;;;;4999940;28;20179;-66
2021/06/15 13:14:04;;;;;;;10.80;2.75;;;;;;;;;;4999692;28;20198;-66
2021/06/15 13:16:34;;;;;;;5.90;1.70;;;;;;;;;;4997891;28;20554;-67
2021/06/15 13:19:01;;;;;;;5.88;1.67;;;;;;;;;;4998218;28;20180;-68
2021/06/15 13:22:02;;;;;;;5.72;1.65;;;;;;;;;;4997914;28;20709;-70
2021/06/15 13:24:32;;;;;;;10.13;2.17;;;;;;;;;;4962333;28;20274;-65
2021/06/15 13:26:58;;;;;;;8.55;2.08;;;;;;;;;;4991647;28;20202;-66
2021/06/15 13:29:30;;;;;;;7.68;1.77;;;;;;;;;;4994563;28;20665;-66
2021/06/15 13:31:55;;;;;;;6.57;1.55;;;;;;;;;;4995035;28;20614;-67
2021/06/15 13:34:20;;;;;;;7.25;1.67;;;;;;;;;;4997119;28;20190;-68
2021/06/15 13:36:47;;;;;;;10.73;1.83;;;;;;;;;;5003670;28;20269;-69
2021/06/15 13:39:16;;;;;;;6.85;1.90;;;;;;;;;;4992976;28;20194;-67
2021/06/15 13:41:43;;;;;;;6.68;1.80;;;;;;;;;;5009330;28;20206;-66
2021/06/15 13:44:08;;;;;;;7.35;1.90;;;;;;;;;;4994695;28;20191;-68
2021/06/15 13:46:35;;;;;;;5.43;1.90;;;;;;;;;;5006344;28;21067;-69
2021/06/15 13:49:01;;;;;;;7.43;1.80;;;;;;;;;;4995603;28;20191;-67
2021/06/15 13:51:27;;;;;;;6.15;1.58;;;;;;;;;;5008280;28;20179;-67
2021/06/15 13:53:52;;;;;;;13.18;1.80;;;;;;;;;;4995992;28;20277;-68
2021/06/15 13:56:18;;;;;;;6.38;2.00;;;;;;;;;;4998957;28;20285;-68
2021/06/15 13:58:44;;;;;;;9.65;1.83;;;;;;;;;;4997514;28;20186;-67
2021/06/15 14:01:10;;;;;;;8.35;1.70;;;;;;;;;;4998968;28;20230;-70
2021/06/15 14:03:35;;;;;;;5.70;1.75;;;;;;;;;;5003205;28;20303;-66
2021/06/15 14:06:01;;;;;;;7.50;1.92;;;;;;;;;;4992570;28;20179;-67
2021/06/15 14:08:27;;;;;;;7.50;1.70;;;;;;;;;;4995857;28;20199;-69
2021/06/15 14:10:52;;;;;;;7.88;1.90;;;;;;;;;;4993772;28;20191;-66
2021/06/15 14:13:19;;;;;;;8.30;2.03;;;;;;;;;;5003320;28;20190;-67
2021/06/15 14:15:45;;;;;;;8.40;2.03;;;;;;;;;;4991581;28;20241;-68
2021/06/15 14:18:10;;;;;;;6.55;1.63;;;;;;;;;;4996726;28;20241;-69
2021/06/15 14:20:35;;;;;;;6.78;1.98;;;;;;;;;;4993416;28;20188;-67
2021/06/15 14:23:01;;;;;;;6.60;2.05;;;;;;;;;;4996935;28;20202;-69
2021/06/15 14:25:29;;;;;;;7.22;2.00;;;;;;;;;;4295848;28;10000811;-67
2021/06/15 14:27:57;;;;;;;12.95;1.85;;;;;;;;;;4997700;28;20208;-68
2021/06/15 14:30:25;;;;;;;5.70;1.73;;;;;;;;;;4989200;28;20646;-69
2021/06/15 14:32:51;;;;;;;9.07;1.52;;;;;;;;;;4994423;28;20205;-69
2021/06/15 14:35:17;;;;;;;5.53;1.52;;;;;;;;;;4992821;28;20199;-70
2021/06/15 14:37:44;;;;;;;7.80;1.70;;;;;;;;;;4987052;28;20209;-71
2021/06/15 14:40:11;;;;;;;7.60;1.63;;;;;;;;;;4992400;28;20217;-68
2021/06/15 14:42:37;;;;;;;6.28;2.10;;;;;;;;;;4987320;28;20190;-68
2021/06/15 14:45:04;;;;;;;10.00;2.25;;;;;;;;;;4998356;28;20217;-72
2021/06/15 14:47:29;;;;;;;6.15;1.90;;;;;;;;;;4986598;28;20647;-67